Time;durP1;ratioP1;P1;durP2;ratioP2;P2;SDS_P1;SDS_P2;PMS_P1;PMS_P2;Temp;Humidity;BMP_temperature;BMP_pressure;BME280_temperature;BME280_humidity;BME280_pressure;Samples;Min_cycle;Max_cycle;Signal;HPM_P1;HPM_P2
2021/10/27 00:00:43;;;;;;;;;;;13.30;99.90;;;;;;5051032;28;19913;-82
2021/10/27 00:03:09;;;;;;;;;;;13.30;99.90;;;;;;5052491;28;19924;-81
2021/10/27 00:05:34;;;;;;;;;;;13.30;99.90;;;;;;5052078;28;20277;-80
2021/10/27 00:08:00;;;;;;;;;;;13.30;99.90;;;;;;5050735;28;19919;-80
2021/10/27 00:10:25;;;;;;;;;;;13.30;99.90;;;;;;5053810;28;20326;-82
2021/10/27 00:12:51;;;;;;;;;;;13.30;99.90;;;;;;5052586;28;20219;-79
2021/10/27 00:15:17;;;;;;;;;;;13.30;99.90;;;;;;5050636;28;19975;-80
2021/10/27 00:17:43;;;;;;;;;;;13.30;99.90;;;;;;5049222;28;19913;-82
2021/10/27 00:20:09;;;;;;;;;;;13.30;99.90;;;;;;5053071;28;19919;-80
2021/10/27 00:22:35;;;;;;;;;;;13.30;99.90;;;;;;5050301;28;20235;-79
2021/10/27 00:25:01;;;;;;;;;;;13.30;99.90;;;;;;5050493;28;19970;-79
2021/10/27 00:27:27;;;;;;;;;;;13.40;99.90;;;;;;5051015;28;19921;-80
2021/10/27 00:29:53;;;;;;;;;;;13.40;99.90;;;;;;5052401;28;20316;-80
2021/10/27 00:32:18;;;;;;;;;;;13.40;99.90;;;;;;5052924;28;19920;-79
2021/10/27 00:34:44;;;;;;;;;;;13.40;99.90;;;;;;5053618;28;20296;-81
2021/10/27 00:37:09;;;;;;;;;;;13.40;99.90;;;;;;5054742;28;19967;-83
2021/10/27 00:39:35;;;;;;;;;;;13.40;99.90;;;;;;5049468;28;19917;-80
2021/10/27 00:42:03;;;;;;;;;;;13.50;99.90;;;;;;5057465;28;19925;-80
2021/10/27 00:44:29;;;;;;;;;;;13.50;99.90;;;;;;5048231;28;20015;-80
2021/10/27 00:46:58;;;;;;;;;;;13.50;99.90;;;;;;5048442;28;20290;-79
2021/10/27 00:49:24;;;;;;;;;;;13.50;99.90;;;;;;5050600;28;20011;-80
2021/10/27 00:51:50;;;;;;;;;;;13.60;99.90;;;;;;5055361;28;19921;-81
2021/10/27 00:54:16;;;;;;;;;;;13.50;99.90;;;;;;5049697;28;19978;-80
2021/10/27 00:56:41;;;;;;;;;;;13.60;99.90;;;;;;5046976;28;19943;-79
2021/10/27 00:59:07;;;;;;;;;;;13.50;99.90;;;;;;5065571;28;19924;-80
2021/10/27 01:01:33;;;;;;;;;;;13.50;99.90;;;;;;5051753;28;19917;-79
2021/10/27 01:03:59;;;;;;;;;;;13.50;99.90;;;;;;5051210;28;19917;-79
2021/10/27 01:06:24;;;;;;;;;;;13.50;99.90;;;;;;5051490;28;19966;-79
2021/10/27 01:08:50;;;;;;;;;;;13.50;99.90;;;;;;5054602;28;19917;-79
2021/10/27 01:11:16;;;;;;;;;;;13.50;99.90;;;;;;5051094;28;19917;-79
2021/10/27 01:13:42;;;;;;;;;;;13.50;99.90;;;;;;5050206;28;19921;-79
2021/10/27 01:16:07;;;;;;;;;;;13.50;99.90;;;;;;5050974;28;19921;-79
2021/10/27 01:18:34;;;;;;;;;;;13.50;99.90;;;;;;5053740;28;19916;-79
2021/10/27 01:21:00;;;;;;;;;;;13.50;99.90;;;;;;5055081;28;19924;-80
2021/10/27 01:23:26;;;;;;;;;;;13.60;99.90;;;;;;5071890;28;19916;-79
2021/10/27 01:25:51;;;;;;;;;;;13.60;99.90;;;;;;5053510;28;19921;-80
2021/10/27 01:28:17;;;;;;;;;;;13.60;99.90;;;;;;5055108;28;19912;-80
2021/10/27 01:30:43;;;;;;;;;;;13.60;99.90;;;;;;5054812;28;19952;-80
2021/10/27 01:33:11;;;;;;;;;;;13.60;99.90;;;;;;5053979;28;21207;-80
2021/10/27 01:35:38;;;;;;;;;;;13.60;99.90;;;;;;5061283;28;19912;-79
2021/10/27 01:38:04;;;;;;;;;;;13.60;99.90;;;;;;5053247;28;19959;-79
2021/10/27 01:40:29;;;;;;;;;;;13.60;99.90;;;;;;5053513;28;19948;-79
2021/10/27 01:42:56;;;;;;;;;;;13.60;99.90;;;;;;5052333;28;20254;-79
2021/10/27 01:45:26;;;;;;;;;;;13.60;99.90;;;;;;5054679;28;19913;-80
2021/10/27 01:47:52;;;;;;;;;;;13.60;99.90;;;;;;5054067;28;19955;-79
2021/10/27 01:50:18;;;;;;;;;;;13.60;99.90;;;;;;5054114;28;19966;-80
2021/10/27 01:52:44;;;;;;;;;;;13.60;99.90;;;;;;5051575;28;20272;-80
2021/10/27 01:55:10;;;;;;;;;;;13.60;99.90;;;;;;5055996;28;19967;-80
2021/10/27 01:57:35;;;;;;;;;;;13.60;99.90;;;;;;5053495;28;19917;-80
2021/10/27 02:00:03;;;;;;;;;;;13.60;99.90;;;;;;5054730;28;20012;-80
2021/10/27 02:02:29;;;;;;;;;;;13.50;99.90;;;;;;5052534;28;19928;-79
2021/10/27 02:04:54;;;;;;;;;;;13.50;99.90;;;;;;5054065;28;20003;-80
2021/10/27 02:07:20;;;;;;;;;;;13.50;99.90;;;;;;5054742;28;19913;-80
2021/10/27 02:09:46;;;;;;;;;;;13.60;99.90;;;;;;5054456;28;19920;-79
2021/10/27 02:12:12;;;;;;;;;;;13.60;99.90;;;;;;5051946;28;19916;-81
2021/10/27 02:14:38;;;;;;;;;;;13.60;99.90;;;;;;5061498;28;19920;-80
2021/10/27 02:17:04;;;;;;;;;;;13.50;99.90;;;;;;5064096;28;19917;-80
2021/10/27 02:19:29;;;;;;;;;;;13.60;99.90;;;;;;5055230;28;20051;-84
2021/10/27 02:21:55;;;;;;;;;;;13.60;99.90;;;;;;5053778;28;19928;-80
2021/10/27 02:24:21;;;;;;;;;;;13.50;99.90;;;;;;5067991;28;19920;-80
2021/10/27 02:26:47;;;;;;;;;;;13.50;99.90;;;;;;5054477;28;19917;-81
2021/10/27 02:29:13;;;;;;;;;;;13.50;99.90;;;;;;5050814;28;20189;-80
2021/10/27 02:31:39;;;;;;;;;;;13.60;99.90;;;;;;5051886;28;20215;-79
2021/10/27 02:34:04;;;;;;;;;;;13.60;99.90;;;;;;5050415;28;19928;-79
2021/10/27 02:36:30;;;;;;;;;;;13.60;99.90;;;;;;5051671;28;20235;-80
2021/10/27 02:38:56;;;;;;;;;;;13.50;99.90;;;;;;5053214;28;20258;-79
2021/10/27 02:41:21;;;;;;;;;;;13.50;99.90;;;;;;5051830;28;20003;-79
2021/10/27 02:43:47;;;;;;;;;;;13.60;99.90;;;;;;5067389;28;20607;-83
2021/10/27 02:46:12;;;;;;;;;;;13.50;99.90;;;;;;5051195;28;19913;-81
2021/10/27 02:48:38;;;;;;;;;;;13.50;99.90;;;;;;5046208;28;19917;-81
2021/10/27 02:51:04;;;;;;;;;;;13.50;99.90;;;;;;5053644;28;19912;-80
2021/10/27 02:53:30;;;;;;;;;;;13.50;99.90;;;;;;5052584;28;19952;-81
2021/10/27 02:55:56;;;;;;;;;;;13.60;99.90;;;;;;5053964;28;19944;-82
2021/10/27 02:58:22;;;;;;;;;;;13.60;99.90;;;;;;5058898;28;19913;-81
2021/10/27 03:00:47;;;;;;;;;;;13.60;99.90;;;;;;5050728;28;20322;-81
2021/10/27 03:03:13;;;;;;;;;;;13.60;99.90;;;;;;5058378;28;19924;-81
2021/10/27 03:05:38;;;;;;;;;;;13.60;99.90;;;;;;5053998;28;19982;-81
2021/10/27 03:08:04;;;;;;;;;;;13.60;99.90;;;;;;5053192;28;19913;-81
2021/10/27 03:10:30;;;;;;;;;;;13.70;99.90;;;;;;5049647;28;19974;-79
2021/10/27 03:12:55;;;;;;;;;;;13.70;99.90;;;;;;5052750;28;19929;-80
2021/10/27 03:15:21;;;;;;;;;;;13.60;99.90;;;;;;5052819;28;20219;-79
2021/10/27 03:17:47;;;;;;;;;;;13.60;99.90;;;;;;5052339;28;19921;-81
2021/10/27 03:20:12;;;;;;;;;;;13.60;99.90;;;;;;5050964;28;19936;-79
2021/10/27 03:22:38;;;;;;;;;;;13.70;99.90;;;;;;5051636;28;20008;-78
2021/10/27 03:25:04;;;;;;;;;;;13.60;99.90;;;;;;5051536;28;20246;-79
2021/10/27 03:27:30;;;;;;;;;;;13.60;99.90;;;;;;5049123;28;20327;-79
2021/10/27 03:29:55;;;;;;;;;;;13.70;99.90;;;;;;5053753;28;19927;-80
2021/10/27 03:32:21;;;;;;;;;;;13.60;99.90;;;;;;5055499;28;19929;-79
2021/10/27 03:34:48;;;;;;;;;;;13.60;99.90;;;;;;5049422;28;20308;-80
2021/10/27 03:37:14;;;;;;;;;;;13.70;99.90;;;;;;5049989;28;19964;-79
2021/10/27 03:39:40;;;;;;;;;;;13.60;99.90;;;;;;5059581;28;19955;-79
2021/10/27 03:42:05;;;;;;;;;;;13.60;99.90;;;;;;5052074;28;19917;-78
2021/10/27 03:44:31;;;;;;;;;;;13.60;99.90;;;;;;5052920;28;19917;-80
2021/10/27 03:46:57;;;;;;;;;;;13.60;99.90;;;;;;5052806;28;20066;-79
2021/10/27 03:49:22;;;;;;;;;;;13.60;99.90;;;;;;5059289;28;19921;-79
2021/10/27 03:51:48;;;;;;;;;;;13.60;99.90;;;;;;5050408;28;19946;-79
2021/10/27 03:54:14;;;;;;;;;;;13.60;99.90;;;;;;5052548;28;19913;-81
2021/10/27 03:56:39;;;;;;;;;;;13.60;99.90;;;;;;5052578;28;19991;-80
2021/10/27 03:59:05;;;;;;;;;;;13.60;99.90;;;;;;5051825;28;19921;-82
2021/10/27 04:01:31;;;;;;;;;;;13.60;99.90;;;;;;5050066;28;20013;-81
2021/10/27 04:03:57;;;;;;;;;;;13.60;99.90;;;;;;5050246;28;19983;-80
2021/10/27 04:06:22;;;;;;;;;;;13.60;99.90;;;;;;5054984;28;20338;-80
2021/10/27 04:08:48;;;;;;;;;;;13.60;99.90;;;;;;5049864;28;19917;-81
2021/10/27 04:11:13;;;;;;;;;;;13.60;99.90;;;;;;5058421;28;19921;-79
2021/10/27 04:13:40;;;;;;;;;;;13.60;99.90;;;;;;5047888;28;20000;-81
2021/10/27 04:16:06;;;;;;;;;;;13.60;99.90;;;;;;5047821;28;20308;-80
2021/10/27 04:18:31;;;;;;;;;;;13.60;99.90;;;;;;5051722;28;19920;-80
2021/10/27 04:20:57;;;;;;;;;;;13.60;99.90;;;;;;5049942;28;19923;-80
2021/10/27 04:23:23;;;;;;;;;;;13.60;99.90;;;;;;5056799;28;20387;-80
2021/10/27 04:25:49;;;;;;;;;;;13.60;99.90;;;;;;5057091;28;19921;-79
2021/10/27 04:28:14;;;;;;;;;;;13.60;99.90;;;;;;5051344;28;19919;-80
2021/10/27 04:30:40;;;;;;;;;;;13.50;99.90;;;;;;5049770;28;19917;-80
2021/10/27 04:33:35;;;;;;;;;;;13.50;99.90;;;;;;5051160;28;19928;-80
2021/10/27 04:36:00;;;;;;;;;;;13.50;99.90;;;;;;5041632;28;20314;-80
2021/10/27 04:38:26;;;;;;;;;;;13.50;99.90;;;;;;5059857;28;19921;-79
2021/10/27 04:40:51;;;;;;;;;;;13.50;99.90;;;;;;5050789;28;19912;-80
2021/10/27 04:43:17;;;;;;;;;;;13.50;99.90;;;;;;5058282;28;19999;-81
2021/10/27 04:45:43;;;;;;;;;;;13.50;99.90;;;;;;5056666;28;19944;-80
2021/10/27 04:48:09;;;;;;;;;;;13.50;99.90;;;;;;5050978;28;20224;-80
2021/10/27 04:50:35;;;;;;;;;;;13.50;99.90;;;;;;5060035;28;20308;-79
2021/10/27 04:53:00;;;;;;;;;;;13.50;99.90;;;;;;5061008;28;19916;-80
2021/10/27 04:55:27;;;;;;;;;;;13.50;99.90;;;;;;5055444;28;19916;-81
2021/10/27 04:57:52;;;;;;;;;;;13.50;99.90;;;;;;5053735;28;19913;-80
2021/10/27 05:00:18;;;;;;;;;;;13.50;99.90;;;;;;5070533;28;19971;-83
2021/10/27 05:02:43;;;;;;;;;;;13.50;99.90;;;;;;5054389;28;19917;-80
2021/10/27 05:05:09;;;;;;;;;;;13.50;99.90;;;;;;5052449;28;19917;-80
2021/10/27 05:07:35;;;;;;;;;;;13.40;99.90;;;;;;5061498;28;19920;-80
2021/10/27 05:10:00;;;;;;;;;;;13.40;99.90;;;;;;5052912;28;19913;-79
2021/10/27 05:12:26;;;;;;;;;;;13.40;99.90;;;;;;5055235;28;19925;-80
2021/10/27 05:14:52;;;;;;;;;;;13.40;99.90;;;;;;5072132;28;19970;-80
2021/10/27 05:17:18;;;;;;;;;;;13.40;99.90;;;;;;5056570;28;19912;-80
2021/10/27 05:19:44;;;;;;;;;;;13.40;99.90;;;;;;5053046;28;20239;-80
2021/10/27 05:22:11;;;;;;;;;;;13.30;99.90;;;;;;5056690;28;19913;-82
2021/10/27 05:24:36;;;;;;;;;;;13.40;99.90;;;;;;5071747;28;19920;-80
2021/10/27 05:27:02;;;;;;;;;;;13.30;99.90;;;;;;5054042;28;19916;-85
2021/10/27 05:29:28;;;;;;;;;;;13.30;99.90;;;;;;5054180;28;19923;-79
2021/10/27 05:31:54;;;;;;;;;;;13.30;99.90;;;;;;5060051;28;19932;-78
2021/10/27 05:34:19;;;;;;;;;;;13.30;99.90;;;;;;5056469;28;20289;-80
2021/10/27 05:36:45;;;;;;;;;;;13.30;99.90;;;;;;5058074;28;19923;-79
2021/10/27 05:39:13;;;;;;;;;;;13.30;99.90;;;;;;5044679;28;19956;-80
2021/10/27 05:41:44;;;;;;;;;;;13.30;99.90;;;;;;5046070;28;20245;-80
2021/10/27 05:44:10;;;;;;;;;;;13.30;99.90;;;;;;5044658;28;19920;-79
2021/10/27 05:46:36;;;;;;;;;;;13.30;99.90;;;;;;5054907;28;19968;-79
2021/10/27 05:49:22;;;;;;;;;;;13.30;99.90;;;;;;5043142;28;19956;-79
2021/10/27 05:51:51;;;;;;;;;;;13.40;99.90;;;;;;5047130;28;20292;-79
2021/10/27 05:57:01;;;;;;;;;;;13.30;99.90;;;;;;5047987;28;19920;-84
2021/10/27 05:59:27;;;;;;;;;;;13.30;99.90;;;;;;5050749;28;19913;-82
2021/10/27 06:01:53;;;;;;;;;;;13.30;99.90;;;;;;5041181;28;19920;-80
2021/10/27 06:04:19;;;;;;;;;;;13.30;99.90;;;;;;5052620;28;19925;-79
2021/10/27 06:06:44;;;;;;;;;;;13.30;99.90;;;;;;5045192;28;20313;-79
2021/10/27 06:09:10;;;;;;;;;;;13.30;99.90;;;;;;5052120;28;19924;-79
2021/10/27 06:11:37;;;;;;;;;;;13.20;99.90;;;;;;5047336;28;19936;-80
2021/10/27 06:14:03;;;;;;;;;;;13.30;99.90;;;;;;5053785;28;20022;-80
2021/10/27 06:16:28;;;;;;;;;;;13.30;99.90;;;;;;5058213;28;19998;-78
2021/10/27 06:18:54;;;;;;;;;;;13.30;99.90;;;;;;5054054;28;19913;-81
2021/10/27 06:21:19;;;;;;;;;;;13.30;99.90;;;;;;5053921;28;19917;-80
2021/10/27 06:23:45;;;;;;;;;;;13.30;99.90;;;;;;5050704;28;19927;-81
2021/10/27 06:26:10;;;;;;;;;;;13.30;99.90;;;;;;5054037;28;20232;-82
2021/10/27 06:28:43;;;;;;;;;;;13.30;99.90;;;;;;5051918;28;19913;-80
2021/10/27 06:31:20;;;;;;;;;;;13.30;99.90;;;;;;5052642;28;19956;-82
2021/10/27 06:34:03;;;;;;;;;;;13.40;99.90;;;;;;5069087;28;19928;-80
2021/10/27 06:47:02;;;;;;;;;;;13.40;99.90;;;;;;5053796;28;19995;-80
2021/10/27 06:49:30;;;;;;;;;;;13.40;99.90;;;;;;5052011;28;20011;-80
2021/10/27 06:51:56;;;;;;;;;;;13.40;99.90;;;;;;5052726;28;19978;-80
2021/10/27 06:54:22;;;;;;;;;;;13.40;99.90;;;;;;5067395;28;19913;-80
2021/10/27 06:56:47;;;;;;;;;;;13.40;99.90;;;;;;5053173;28;19913;-80
2021/10/27 06:59:21;;;;;;;;;;;13.40;99.90;;;;;;5057925;28;19995;-81
2021/10/27 07:04:29;;;;;;;;;;;13.40;99.90;;;;;;5053243;28;19952;-79
2021/10/27 07:17:27;;;;;;;;;;;13.50;99.90;;;;;;5050301;28;19975;-79
2021/10/27 07:19:53;;;;;;;;;;;13.50;99.90;;;;;;5050664;28;19917;-81
2021/10/27 07:22:18;;;;;;;;;;;13.50;99.90;;;;;;5052227;28;19921;-80
2021/10/27 07:24:44;;;;;;;;;;;13.50;99.90;;;;;;5052356;28;19920;-80
2021/10/27 07:27:11;;;;;;;;;;;13.50;99.90;;;;;;5056635;28;19920;-82
2021/10/27 07:29:37;;;;;;;;;;;13.50;99.90;;;;;;5058562;28;19921;-80
2021/10/27 07:32:05;;;;;;;;;;;13.50;99.90;;;;;;5050551;28;19928;-79
2021/10/27 07:34:34;;;;;;;;;;;13.60;99.90;;;;;;5054692;28;19916;-80
2021/10/27 07:42:24;;;;;;;;;;;13.60;99.90;;;;;;5054393;28;19912;-80
2021/10/27 07:44:50;;;;;;;;;;;13.60;99.90;;;;;;5050585;28;19935;-79
2021/10/27 07:47:16;;;;;;;;;;;13.60;99.90;;;;;;5053113;28;20018;-81
2021/10/27 07:49:42;;;;;;;;;;;13.60;99.90;;;;;;5053799;28;20031;-79
2021/10/27 07:52:08;;;;;;;;;;;13.60;99.90;;;;;;5052622;28;20043;-80
2021/10/27 07:54:34;;;;;;;;;;;13.70;99.90;;;;;;5052667;28;20220;-80
2021/10/27 07:57:00;;;;;;;;;;;13.70;99.90;;;;;;5049487;28;20704;-80
2021/10/27 07:59:26;;;;;;;;;;;13.70;99.90;;;;;;5048356;28;19927;-79
2021/10/27 08:01:51;;;;;;;;;;;13.70;99.90;;;;;;5057940;28;19990;-81
2021/10/27 08:04:17;;;;;;;;;;;13.80;99.90;;;;;;5051309;28;20353;-80
2021/10/27 08:06:44;;;;;;;;;;;13.80;99.90;;;;;;5051979;28;19939;-80
2021/10/27 08:09:10;;;;;;;;;;;13.80;99.90;;;;;;5052304;28;19913;-80
2021/10/27 08:11:35;;;;;;;;;;;13.90;99.90;;;;;;5050200;28;20019;-80
2021/10/27 08:14:01;;;;;;;;;;;13.90;99.90;;;;;;5053353;28;19999;-79
2021/10/27 08:16:26;;;;;;;;;;;13.90;99.90;;;;;;5051026;28;19958;-81
2021/10/27 08:18:52;;;;;;;;;;;13.80;99.90;;;;;;5058293;28;19921;-81
2021/10/27 08:21:18;;;;;;;;;;;13.80;99.90;;;;;;5050750;28;20383;-79
2021/10/27 08:23:46;;;;;;;;;;;13.90;99.90;;;;;;5051476;28;19974;-80
2021/10/27 08:26:16;;;;;;;;;;;13.90;99.90;;;;;;5051431;28;19920;-81
2021/10/27 08:28:48;;;;;;;;;;;13.90;99.90;;;;;;5058293;28;19916;-79
2021/10/27 08:31:37;;;;;;;;;;;13.90;99.90;;;;;;5046654;28;19921;-79
2021/10/27 08:36:31;;;;;;;;;;;13.90;99.90;;;;;;5052434;28;20037;-81
2021/10/27 08:38:57;;;;;;;;;;;13.90;99.90;;;;;;5047560;28;19913;-80
2021/10/27 08:41:24;;;;;;;;;;;13.90;99.90;;;;;;5065424;28;19965;-81
2021/10/27 08:43:49;;;;;;;;;;;14.00;99.90;;;;;;5051166;28;19920;-85
2021/10/27 08:46:16;;;;;;;;;;;14.00;99.90;;;;;;5051980;28;20215;-80
2021/10/27 08:48:44;;;;;;;;;;;14.10;99.90;;;;;;5048787;28;21520;-81
2021/10/27 08:51:12;;;;;;;;;;;14.10;99.90;;;;;;5059112;28;20267;-80
2021/10/27 08:53:38;;;;;;;;;;;14.10;99.90;;;;;;5053017;28;19923;-82
2021/10/27 08:56:05;;;;;;;;;;;14.10;99.90;;;;;;5051687;28;19995;-82
2021/10/27 08:58:38;;;;;;;;;;;14.10;99.90;;;;;;5051021;28;19921;-80
2021/10/27 09:04:06;;;;;;;;;;;14.20;99.90;;;;;;5049825;28;19967;-80
2021/10/27 09:34:45;;;;;;;;;;;14.30;99.90;;;;;;5052444;28;19936;-80
2021/10/27 10:05:10;;;;;;;;;;;14.40;99.90;;;;;;5051810;28;19928;-80
2021/10/27 10:07:36;;;;;;;;;;;14.40;99.90;;;;;;5050889;28;19943;-79
2021/10/27 10:10:03;;;;;;;;;;;14.50;99.90;;;;;;5054641;28;19913;-82
2021/10/27 10:12:32;;;;;;;;;;;14.50;99.90;;;;;;5053712;28;19978;-80
2021/10/27 10:14:57;;;;;;;;;;;14.50;99.90;;;;;;5047256;28;19935;-81
2021/10/27 10:17:23;;;;;;;;;;;14.60;99.90;;;;;;5051869;28;20332;-81
2021/10/27 10:19:49;;;;;;;;;;;14.60;99.90;;;;;;5059043;28;20003;-81
2021/10/27 10:22:25;;;;;;;;;;;14.60;99.90;;;;;;5052802;28;19913;-81
2021/10/27 10:24:51;;;;;;;;;;;14.60;99.90;;;;;;5068586;28;19920;-80
2021/10/27 10:27:33;;;;;;;;;;;14.60;99.90;;;;;;5059475;28;19921;-79
2021/10/27 10:30:03;;;;;;;;;;;14.70;99.90;;;;;;5051775;28;19924;-79
2021/10/27 10:32:30;;;;;;;;;;;14.60;99.90;;;;;;5051611;28;20045;-80
2021/10/27 10:35:11;;;;;;;;;;;14.70;99.90;;;;;;5051103;28;20243;-80
2021/10/27 10:38:01;;;;;;;;;;;14.60;99.90;;;;;;5060185;28;19916;-81
2021/10/27 10:43:28;;;;;;;;;;;14.60;99.90;;;;;;5054329;28;20319;-81
2021/10/27 11:00:34;;;;;;;;;;;14.70;99.90;;;;;;5060154;28;19978;-82
2021/10/27 11:37:28;;;;;;;;;;;14.80;99.90;;;;;;5052264;28;19927;-87
2021/10/27 11:40:05;;;;;;;;;;;14.90;99.90;;;;;;5051551;28;19924;-84
2021/10/27 11:42:40;;;;;;;;;;;14.90;99.90;;;;;;5052835;28;19924;-82
2021/10/27 11:48:02;;;;;;;;;;;14.90;99.90;;;;;;5049769;28;20401;-81
2021/10/27 11:50:33;;;;;;;;;;;14.80;99.90;;;;;;5051924;28;20300;-82
2021/10/27 11:53:00;;;;;;;;;;;14.90;99.90;;;;;;5050140;28;19920;-82
2021/10/27 11:55:28;;;;;;;;;;;14.90;99.90;;;;;;5052022;28;19921;-81
2021/10/27 11:57:53;;;;;;;;;;;14.80;99.90;;;;;;5049733;28;19966;-81
2021/10/27 12:00:28;;;;;;;;;;;14.80;99.90;;;;;;5050639;28;19932;-81
2021/10/27 12:03:15;;;;;;;;;;;14.80;99.90;;;;;;5056513;28;19923;-80
2021/10/27 12:06:05;;;;;;;;;;;14.80;99.90;;;;;;5049455;28;20263;-81
2021/10/27 12:11:07;;;;;;;;;;;14.90;99.90;;;;;;5052100;28;20260;-82
2021/10/27 12:16:42;;;;;;;;;;;15.00;99.90;;;;;;5052012;28;19948;-80
2021/10/27 12:19:24;;;;;;;;;;;15.00;99.90;;;;;;5049348;28;20012;-80
2021/10/27 12:22:02;;;;;;;;;;;15.00;99.90;;;;;;5052683;28;20011;-90
2021/10/27 12:24:30;;;;;;;;;;;15.00;99.90;;;;;;5066611;28;19921;-88
2021/10/27 12:27:07;;;;;;;;;;;15.00;99.90;;;;;;5058412;28;19921;-80
2021/10/27 12:29:34;;;;;;;;;;;15.00;99.90;;;;;;5051893;28;19913;-81
2021/10/27 12:32:04;;;;;;;;;;;15.00;99.90;;;;;;5049727;28;19925;-80
2021/10/27 12:34:30;;;;;;;;;;;15.00;99.90;;;;;;5061760;28;19917;-80
2021/10/27 12:36:58;;;;;;;;;;;15.00;99.90;;;;;;5054977;28;20582;-84
2021/10/27 12:39:36;;;;;;;;;;;15.00;99.90;;;;;;5049552;28;20223;-83
2021/10/27 12:42:05;;;;;;;;;;;15.00;99.90;;;;;;5057919;28;19927;-82
2021/10/27 12:44:33;;;;;;;;;;;15.00;99.90;;;;;;5050823;28;19923;-82
2021/10/27 12:47:05;;;;;;;;;;;15.00;99.90;;;;;;5051140;28;19916;-82
2021/10/27 12:49:31;;;;;;;;;;;15.00;99.90;;;;;;5046445;28;19917;-82
2021/10/27 12:51:56;;;;;;;;;;;15.00;99.90;;;;;;5045645;28;19917;-80
2021/10/27 12:54:28;;;;;;;;;;;15.00;99.90;;;;;;5046918;28;19916;-82
2021/10/27 12:57:13;;;;;;;;;;;15.00;99.90;;;;;;5049707;28;19917;-87
2021/10/27 12:59:39;;;;;;;;;;;15.00;99.90;;;;;;5048244;28;20016;-81
2021/10/27 13:02:08;;;;;;;;;;;15.00;99.90;;;;;;5044066;28;20024;-84
2021/10/27 13:04:47;;;;;;;;;;;15.00;99.90;;;;;;5046189;28;20008;-79
2021/10/27 13:07:27;;;;;;;;;;;15.00;99.90;;;;;;5049939;28;19970;-86
2021/10/27 13:23:26;;;;;;;;;;;15.00;99.90;;;;;;5019133;28;19920;-80
2021/10/27 13:31:21;;;;;;;;;;;14.80;99.90;;;;;;5025011;28;19964;-83
2021/10/27 13:33:47;;;;;;;;;;;14.80;99.90;;;;;;5013152;28;19925;-81
2021/10/27 13:36:13;;;;;;;;;;;14.90;99.90;;;;;;5025007;28;19913;-80
2021/10/27 13:38:39;;;;;;;;;;;14.80;99.90;;;;;;5024188;28;19914;-83
2021/10/27 13:41:07;;;;;;;;;;;14.80;99.90;;;;;;5015671;28;20004;-83
2021/10/27 13:43:41;;;;;;;;;;;14.80;99.90;;;;;;5022380;28;19917;-81
2021/10/27 14:07:39;;;;;;;;;;;14.70;99.90;;;;;;5053718;28;20547;-81
2021/10/27 14:10:10;;;;;;;;;;;14.70;99.90;;;;;;5055980;28;19959;-82
2021/10/27 14:12:42;;;;;;;;;;;14.70;99.90;;;;;;5054292;28;19927;-81
2021/10/27 15:20:36;;;;;;;;;;;14.20;99.90;;;;;;5054283;28;20058;-85
2021/10/27 15:41:13;;;;;;;;;;;13.80;99.90;;;;;;5050314;28;20050;-82
2021/10/27 15:51:41;;;;;;;;;;;13.60;99.90;;;;;;5054305;28;19920;-86
2021/10/27 15:54:09;;;;;;;;;;;13.60;99.90;;;;;;5049469;28;19917;-83
2021/10/27 15:56:35;;;;;;;;;;;13.50;99.90;;;;;;5050170;28;19962;-82
2021/10/27 15:59:01;;;;;;;;;;;13.50;99.90;;;;;;5057570;28;19999;-85
2021/10/27 16:01:27;;;;;;;;;;;13.40;99.90;;;;;;5050496;28;19996;-82
2021/10/27 16:03:52;;;;;;;;;;;13.40;99.90;;;;;;5051895;28;20016;-81
2021/10/27 16:06:24;;;;;;;;;;;13.30;99.90;;;;;;5048349;28;20273;-88
2021/10/27 16:08:53;;;;;;;;;;;13.30;99.90;;;;;;5048436;28;20581;-82
2021/10/27 16:11:19;;;;;;;;;;;13.20;99.90;;;;;;5050193;28;19917;-82
2021/10/27 16:13:44;;;;;;;;;;;13.10;99.90;;;;;;5050551;28;20349;-83
2021/10/27 16:16:14;;;;;;;;;;;13.00;99.90;;;;;;5055635;28;19916;-81
2021/10/27 16:18:40;;;;;;;;;;;13.00;99.90;;;;;;5049506;28;19920;-82
2021/10/27 16:21:06;;;;;;;;;;;13.00;99.90;;;;;;5043148;28;19924;-87
2021/10/27 16:23:31;;;;;;;;;;;12.90;99.90;;;;;;5049547;28;20231;-82
2021/10/27 16:25:58;;;;;;;;;;;12.80;99.90;;;;;;5051064;28;19916;-83
2021/10/27 16:28:24;;;;;;;;;;;12.80;99.90;;;;;;5052369;28;20366;-81
2021/10/27 16:30:51;;;;;;;;;;;12.80;99.90;;;;;;5051157;28;19995;-86
2021/10/27 16:33:21;;;;;;;;;;;12.70;99.90;;;;;;5044206;28;20004;-84
2021/10/27 16:35:47;;;;;;;;;;;12.60;99.90;;;;;;5040090;28;20320;-81
2021/10/27 16:38:12;;;;;;;;;;;12.60;99.90;;;;;;5043241;28;20278;-83
2021/10/27 16:40:38;;;;;;;;;;;12.60;99.90;;;;;;5049825;28;20012;-81
2021/10/27 16:43:04;;;;;;;;;;;12.60;99.90;;;;;;5042747;28;19920;-82
2021/10/27 16:45:30;;;;;;;;;;;12.50;99.90;;;;;;5048422;28;20275;-83
2021/10/27 16:47:56;;;;;;;;;;;12.40;99.90;;;;;;5050966;28;19921;-82
2021/10/27 16:50:22;;;;;;;;;;;12.40;99.90;;;;;;5052721;28;19913;-88
2021/10/27 16:52:48;;;;;;;;;;;12.40;99.90;;;;;;5052243;28;20233;-83
2021/10/27 16:55:19;;;;;;;;;;;12.40;99.90;;;;;;5055622;28;19919;-82
2021/10/27 16:57:49;;;;;;;;;;;12.30;99.90;;;;;;5054229;28;19913;-82
2021/10/27 17:00:15;;;;;;;;;;;12.30;99.90;;;;;;5055796;28;20023;-84
2021/10/27 17:02:41;;;;;;;;;;;12.30;99.90;;;;;;5054702;28;19913;-82
2021/10/27 17:05:07;;;;;;;;;;;12.20;99.90;;;;;;5054163;28;19913;-82
2021/10/27 17:07:33;;;;;;;;;;;12.20;99.90;;;;;;5054600;28;19913;-83
2021/10/27 17:09:59;;;;;;;;;;;12.10;99.90;;;;;;5052403;28;20251;-81
2021/10/27 17:12:25;;;;;;;;;;;12.10;99.90;;;;;;5052543;28;21053;-84
2021/10/27 17:14:50;;;;;;;;;;;12.10;99.90;;;;;;5052617;28;19913;-82
2021/10/27 17:17:16;;;;;;;;;;;12.10;99.90;;;;;;5056524;28;19996;-80
2021/10/27 17:19:41;;;;;;;;;;;12.00;99.90;;;;;;5053633;28;19924;-82
2021/10/27 17:22:09;;;;;;;;;;;12.00;99.90;;;;;;5063880;28;20322;-83
2021/10/27 17:24:35;;;;;;;;;;;12.00;99.90;;;;;;5059137;28;19967;-81
2021/10/27 17:27:01;;;;;;;;;;;11.90;99.90;;;;;;5052551;28;20278;-86
2021/10/27 17:29:26;;;;;;;;;;;11.90;99.90;;;;;;5056283;28;19916;-82
2021/10/27 17:31:52;;;;;;;;;;;11.90;99.90;;;;;;5061481;28;19921;-86
2021/10/27 17:34:18;;;;;;;;;;;11.90;99.90;;;;;;5055544;28;19924;-83
2021/10/27 17:36:43;;;;;;;;;;;11.80;99.90;;;;;;5053151;28;20031;-82
2021/10/27 17:39:09;;;;;;;;;;;11.80;99.90;;;;;;5059626;28;19917;-82
2021/10/27 17:41:36;;;;;;;;;;;11.90;99.90;;;;;;5050588;28;19913;-83
2021/10/27 17:44:04;;;;;;;;;;;11.80;99.90;;;;;;5065363;28;19956;-83
2021/10/27 17:49:13;;;;;;;;;;;11.80;99.90;;;;;;5056187;28;19913;-81
2021/10/27 17:51:48;;;;;;;;;;;11.80;99.90;;;;;;5053653;28;19994;-82
2021/10/27 17:59:42;;;;;;;;;;;11.80;99.90;;;;;;5055101;28;19919;-84
2021/10/27 18:02:08;;;;;;;;;;;11.80;99.90;;;;;;5064194;28;20011;-83
2021/10/27 18:04:33;;;;;;;;;;;11.70;99.90;;;;;;5054009;28;19917;-83
2021/10/27 18:06:59;;;;;;;;;;;11.70;99.90;;;;;;5054354;28;19958;-82
2021/10/27 18:09:25;;;;;;;;;;;11.70;99.90;;;;;;5061737;28;19961;-83
2021/10/27 18:11:51;;;;;;;;;;;11.70;99.90;;;;;;5070422;28;20216;-82
2021/10/27 18:14:19;;;;;;;;;;;11.70;99.90;;;;;;5070366;28;19913;-82
2021/10/27 18:16:55;;;;;;;;;;;11.60;99.90;;;;;;5052652;28;20219;-81
2021/10/27 18:20:04;;;;;;;;;;;11.60;99.90;;;;;;5054670;28;19912;-83
2021/10/27 18:22:26;;;;;;;;;;;11.60;99.90;;;;;;5054971;28;20208;-83
2021/10/27 18:25:11;;;;;;;;;;;11.60;99.90;;;;;;5054328;28;19920;-81
2021/10/27 18:36:20;;;;;;;;;;;11.50;99.90;;;;;;5051595;28;19920;-81
2021/10/27 18:38:58;;;;;;;;;;;11.50;99.90;;;;;;5033059;28;19944;-82
2021/10/27 18:41:33;;;;;;;;;;;11.50;99.90;;;;;;5026837;28;19924;-81
2021/10/27 18:43:59;;;;;;;;;;;11.40;99.90;;;;;;5054140;28;19978;-80
2021/10/27 18:46:25;;;;;;;;;;;11.40;99.90;;;;;;5053744;28;20337;-82
2021/10/27 18:48:51;;;;;;;;;;;11.40;99.90;;;;;;5052148;28;19919;-80
2021/10/27 18:51:24;;;;;;;;;;;11.40;99.90;;;;;;5053506;28;19952;-83
2021/10/27 18:59:21;;;;;;;;;;;11.40;99.90;;;;;;5050357;28;20342;-83
2021/10/27 19:01:54;;;;;;;;;;;11.40;99.90;;;;;;5051803;28;19913;-80
2021/10/27 19:12:47;;;;;;;;;;;11.30;99.90;;;;;;5051546;28;19947;-83
2021/10/27 19:15:18;;;;;;;;;;;11.30;99.90;;;;;;5059341;28;19971;-83
2021/10/27 19:17:44;;;;;;;;;;;11.20;99.90;;;;;;5058959;28;20292;-84
2021/10/27 19:20:10;;;;;;;;;;;11.10;99.90;;;;;;5056030;28;19917;-83
2021/10/27 19:22:36;;;;;;;;;;;11.10;99.90;;;;;;5052761;28;19917;-83
2021/10/27 20:16:31;;;;;;;;;;;10.70;99.90;;;;;;5051657;28;20004;-81
2021/10/27 20:51:16;;;;;;;;;;;10.40;99.90;;;;;;5048005;28;19909;-82
2021/10/27 20:53:44;;;;;;;;;;;10.40;99.90;;;;;;5051187;28;20606;-83
2021/10/27 20:56:14;;;;;;;;;;;10.40;99.90;;;;;;5056398;28;19964;-83
2021/10/27 21:01:29;;;;;;;;;;;10.40;99.90;;;;;;5051372;28;19986;-82